Time;durP1;ratioP1;P1;durP2;ratioP2;P2;SDS_P1;SDS_P2;PMS_P1;PMS_P2;Temp;Humidity;BMP_temperature;BMP_pressure;BME280_temperature;BME280_humidity;BME280_pressure;Samples;Min_cycle;Max_cycle;Signal;HPM_P1;HPM_P2
2022/01/12 00:01:34;;;;;;;4.18;3.15;;;22.40;28.00;;;;;;5047503;28;20207;-66
2022/01/12 00:07:34;;;;;;;4.90;3.15;;;22.40;28.00;;;;;;5045864;28;20075;-66
2022/01/12 00:10:01;;;;;;;5.05;3.63;;;22.40;28.00;;;;;;5050230;28;20359;-66
2022/01/12 00:12:29;;;;;;;4.47;3.30;;;22.40;28.10;;;;;;5046364;28;20049;-66
2022/01/12 00:14:56;;;;;;;4.88;3.67;;;22.40;28.10;;;;;;5049080;28;20238;-66
2022/01/12 00:21:04;;;;;;;3.88;3.38;;;22.40;28.10;;;;;;5048321;28;20505;-67
2022/01/12 00:23:31;;;;;;;3.97;3.15;;;22.40;28.10;;;;;;5046486;28;20076;-66
2022/01/12 00:26:03;;;;;;;4.55;3.70;;;22.40;28.50;;;;;;5047465;28;20049;-66
2022/01/12 00:34:09;;;;;;;3.97;3.13;;;22.40;28.10;;;;;;5049071;28;20037;-66
2022/01/12 00:36:37;;;;;;;3.90;3.25;;;22.40;28.10;;;;;;5046236;28;20084;-66
2022/01/12 00:39:06;;;;;;;4.38;3.40;;;22.40;28.10;;;;;;5049074;28;20091;-66
2022/01/12 00:41:37;;;;;;;4.75;3.25;;;22.40;28.10;;;;;;5046859;28;20114;-66
2022/01/12 00:44:07;;;;;;;;;;;22.40;28.10;;;;;;5049571;28;20049;-66
2022/01/12 00:46:36;;;;;;;4.38;3.20;;;22.40;28.10;;;;;;5046330;28;20003;-66
2022/01/12 00:49:03;;;;;;;3.72;2.83;;;22.40;28.10;;;;;;5048274;28;20430;-66
2022/01/12 00:51:33;;;;;;;4.55;3.38;;;22.40;28.10;;;;;;5046973;28;20069;-66
2022/01/12 00:54:01;;;;;;;5.40;3.55;;;22.40;28.00;;;;;;5048355;28;20118;-66
2022/01/12 00:56:29;;;;;;;4.00;3.42;;;22.40;28.00;;;;;;5046273;28;20103;-67
2022/01/12 00:58:56;;;;;;;3.35;2.60;;;22.40;28.00;;;;;;5048057;28;20421;-66
2022/01/12 01:01:23;;;;;;;3.42;2.67;;;22.40;28.00;;;;;;5047194;28;20049;-67
2022/01/12 01:03:51;;;;;;;5.05;3.35;;;22.40;28.00;;;;;;5046838;28;20049;-66
2022/01/12 01:06:20;;;;;;;3.70;2.92;;;22.40;28.00;;;;;;5046704;28;20442;-66
2022/01/12 01:08:50;;;;;;;3.58;3.20;;;22.40;28.00;;;;;;5047768;28;20094;-66
2022/01/12 01:11:18;;;;;;;;;;;22.40;28.00;;;;;;5047640;28;20076;-66
2022/01/12 01:25:54;;;;;;;3.47;3.15;;;22.30;28.10;;;;;;5026989;28;20406;-66
2022/01/12 01:28:22;;;;;;;4.80;3.28;;;22.30;28.10;;;;;;5030320;28;20111;-66
2022/01/12 01:30:49;;;;;;;3.63;2.50;;;22.30;28.10;;;;;;5030232;28;20041;-66
2022/01/12 01:33:21;;;;;;;4.35;3.05;;;22.30;28.10;;;;;;5030297;28;20081;-66
2022/01/12 01:35:54;;;;;;;3.60;3.25;;;22.30;28.10;;;;;;5030393;28;20107;-67
2022/01/12 01:38:22;;;;;;;3.65;3.13;;;22.30;28.10;;;;;;5030695;28;20056;-66
2022/01/12 01:40:49;;;;;;;3.63;3.10;;;22.30;28.10;;;;;;5031416;28;20046;-66
2022/01/12 01:43:24;;;;;;;3.63;2.80;;;22.30;28.10;;;;;;5045892;28;20550;-66
2022/01/12 01:54:14;;;;;;;3.45;2.88;;;22.30;28.10;;;;;;5031811;28;20079;-66
2022/01/12 01:56:41;;;;;;;4.70;3.03;;;22.30;28.10;;;;;;5029720;28;20410;-67
2022/01/12 01:59:08;;;;;;;4.22;2.97;;;22.20;28.10;;;;;;5031870;28;20100;-66
2022/01/12 02:01:35;;;;;;;3.67;2.95;;;22.20;28.10;;;;;;5029880;28;20095;-66
2022/01/12 02:04:04;;;;;;;4.45;3.42;;;22.20;28.10;;;;;;5031568;28;20088;-66
2022/01/12 02:06:32;;;;;;;3.42;3.00;;;22.20;28.10;;;;;;5028497;28;20057;-66
2022/01/12 02:08:59;;;;;;;3.72;2.50;;;22.20;28.10;;;;;;5046518;28;20046;-66
2022/01/12 02:11:30;;;;;;;4.60;3.38;;;22.20;28.10;;;;;;5030069;28;20084;-66
2022/01/12 02:13:57;;;;;;;5.07;3.08;;;22.20;28.10;;;;;;5031014;28;20053;-66
2022/01/12 02:16:32;;;;;;;3.88;2.78;;;22.20;28.10;;;;;;5028831;28;20049;-66
2022/01/12 02:40:12;;;;;;;5.07;3.67;;;22.20;28.10;;;;;;5051830;28;20060;-66
2022/01/12 02:54:54;;;;;;;4.43;2.75;;;22.20;28.10;;;;;;5049435;28;20309;-66
2022/01/12 03:01:52;;;;;;;2.78;2.53;;;22.10;28.00;;;;;;5048711;28;20039;-66
2022/01/12 03:04:14;;;;;;;3.53;2.95;;;22.20;28.10;;;;;;5050299;28;20478;-66
2022/01/12 03:06:43;;;;;;;3.92;2.95;;;22.10;28.00;;;;;;5047859;28;20572;-66
2022/01/12 03:09:11;;;;;;;3.08;2.78;;;22.10;28.00;;;;;;5049346;28;20080;-66
2022/01/12 03:11:39;;;;;;;5.55;3.00;;;22.10;28.10;;;;;;5047974;28;20127;-66
2022/01/12 03:14:06;;;;;;;3.83;2.97;;;22.10;28.10;;;;;;5050386;28;20103;-65
2022/01/12 03:16:33;;;;;;;5.53;3.03;;;22.10;28.10;;;;;;5046208;28;20053;-65
2022/01/12 03:19:03;;;;;;;3.72;3.10;;;22.10;28.10;;;;;;5049738;28;20045;-66
2022/01/12 03:21:34;;;;;;;3.83;3.13;;;22.10;28.10;;;;;;5047278;28;20122;-66
2022/01/12 03:24:02;;;;;;;3.58;3.15;;;22.10;28.10;;;;;;5049945;28;20049;-65
2022/01/12 03:26:33;;;;;;;3.03;2.60;;;22.10;28.10;;;;;;5047366;28;20037;-65
2022/01/12 03:29:01;;;;;;;3.42;2.88;;;22.00;28.10;;;;;;5050174;28;20459;-66
2022/01/12 03:31:33;;;;;;;4.72;3.08;;;22.00;28.10;;;;;;5048244;28;20445;-65
2022/01/12 03:34:23;;;;;;;4.07;2.92;;;22.10;28.20;;;;;;5049853;28;20056;-66
2022/01/12 03:37:16;;;;;;;4.75;3.15;;;22.00;28.50;;;;;;5046664;28;20068;-66
2022/01/12 03:39:34;;;;;;;3.97;3.15;;;22.00;28.50;;;;;;5050500;28;20119;-66
2022/01/12 03:42:01;;;;;;;4.10;3.20;;;22.00;28.10;;;;;;5046793;28;20044;-66
2022/01/12 03:44:29;;;;;;;3.80;2.97;;;22.00;28.10;;;;;;5050242;28;20045;-66
2022/01/12 03:46:56;;;;;;;3.63;2.90;;;22.00;28.10;;;;;;5045770;28;20087;-66
2022/01/12 03:49:24;;;;;;;4.38;3.30;;;22.00;28.10;;;;;;5049612;28;20053;-66
2022/01/12 03:51:51;;;;;;;2.97;2.67;;;22.00;28.10;;;;;;5047049;28;20190;-66
2022/01/12 03:57:41;;;;;;;3.55;3.03;;;22.00;28.10;;;;;;5047194;28;20100;-66
2022/01/12 04:00:09;;;;;;;4.30;3.15;;;22.00;28.20;;;;;;5050292;28;20049;-65
2022/01/12 04:02:39;;;;;;;4.32;3.00;;;22.00;28.20;;;;;;5046175;28;20040;-66
2022/01/12 04:05:12;;;;;;;4.25;3.17;;;22.00;28.20;;;;;;5048512;28;20577;-66
2022/01/12 04:10:26;;;;;;;4.07;2.92;;;22.00;28.10;;;;;;5049353;28;20049;-66
2022/01/12 04:12:53;;;;;;;3.50;3.08;;;22.00;28.10;;;;;;5047294;28;20122;-66
2022/01/12 04:15:20;;;;;;;3.95;3.10;;;22.00;28.10;;;;;;5048293;28;20053;-66
2022/01/12 04:17:47;;;;;;;4.55;3.38;;;22.00;28.10;;;;;;5046522;28;20076;-65
2022/01/12 04:20:14;;;;;;;3.75;2.70;;;22.00;28.00;;;;;;5049629;28;20433;-66
2022/01/12 04:25:28;;;;;;;4.50;3.80;;;22.00;28.00;;;;;;5048130;28;20060;-66
2022/01/12 04:27:56;;;;;;;4.47;3.22;;;22.00;28.00;;;;;;5060688;28;20085;-66
2022/01/12 04:30:23;;;;;;;4.63;3.65;;;22.00;28.00;;;;;;5067360;28;20505;-66
2022/01/12 04:32:50;;;;;;;3.05;2.75;;;22.00;28.00;;;;;;5048730;28;20390;-66
2022/01/12 04:35:23;;;;;;;4.88;3.25;;;22.00;28.00;;;;;;5046440;28;20052;-65
2022/01/12 04:37:51;;;;;;;3.70;3.20;;;22.00;28.00;;;;;;5042270;28;20478;-66
2022/01/12 04:40:18;;;;;;;4.22;3.35;;;22.00;28.10;;;;;;5049193;28;20045;-66
2022/01/12 04:42:45;;;;;;;4.35;3.20;;;22.00;28.00;;;;;;5042570;28;20113;-66
2022/01/12 04:45:37;;;;;;;4.38;3.40;;;22.00;28.10;;;;;;5048739;28;20056;-66
2022/01/12 04:48:08;;;;;;;6.10;3.70;;;21.90;28.00;;;;;;5046511;28;20540;-65
2022/01/12 04:50:37;;;;;;;5.13;3.55;;;22.00;28.10;;;;;;5047999;28;20048;-66
2022/01/12 04:53:04;;;;;;;4.22;3.22;;;21.90;28.10;;;;;;5046515;28;20053;-66
2022/01/12 04:55:32;;;;;;;4.75;3.17;;;21.90;28.10;;;;;;5050371;28;20049;-66
2022/01/12 04:57:59;;;;;;;5.05;3.72;;;21.90;28.10;;;;;;5053476;28;20114;-65
2022/01/12 05:00:29;;;;;;;3.35;3.05;;;21.90;28.10;;;;;;5048762;28;20053;-65
2022/01/12 05:08:49;;;;;;;4.53;3.33;;;21.90;28.10;;;;;;5071578;28;20114;-67
2022/01/12 05:14:03;;;;;;;4.13;3.55;;;21.90;28.10;;;;;;5072563;28;20068;-66
2022/01/12 05:16:30;;;;;;;5.57;3.50;;;21.90;28.10;;;;;;5070502;28;20114;-65
2022/01/12 05:19:00;;;;;;;5.18;3.90;;;21.90;28.10;;;;;;5072186;28;20040;-65
2022/01/12 05:21:27;;;;;;;3.85;3.03;;;21.90;28.10;;;;;;5070442;28;20114;-65
2022/01/12 05:23:55;;;;;;;4.45;3.33;;;21.90;28.10;;;;;;5050342;28;20548;-65
2022/01/12 05:26:22;;;;;;;4.90;3.45;;;21.90;28.10;;;;;;5049811;28;20091;-65
2022/01/12 05:32:29;;;;;;;4.28;3.15;;;21.90;28.10;;;;;;5047174;28;20036;-65
2022/01/12 05:35:01;;;;;;;5.10;3.80;;;21.80;28.10;;;;;;5050183;28;20263;-65
2022/01/12 05:37:28;;;;;;;7.72;4.15;;;21.80;28.10;;;;;;5047416;28;20072;-65
2022/01/12 05:39:55;;;;;;;5.05;3.95;;;21.80;28.10;;;;;;5052647;28;20086;-65
2022/01/12 05:46:11;;;;;;;;;;;21.80;28.10;;;;;;5050298;28;20039;-65
2022/01/12 05:51:28;;;;;;;5.68;3.70;;;21.80;28.10;;;;;;5033434;28;20049;-67
2022/01/12 05:53:56;;;;;;;5.03;3.60;;;21.80;28.10;;;;;;5033236;28;20049;-67
2022/01/12 05:56:24;;;;;;;5.95;3.92;;;21.80;28.10;;;;;;5040466;28;20135;-67
2022/01/12 05:58:51;;;;;;;5.65;3.65;;;21.80;28.10;;;;;;5051643;28;20079;-67
2022/01/12 06:01:20;;;;;;;6.95;4.43;;;21.80;28.00;;;;;;5052874;28;20071;-67
2022/01/12 06:03:47;;;;;;;6.28;4.00;;;21.80;28.00;;;;;;5052997;28;20041;-67
2022/01/12 06:06:15;;;;;;;4.90;3.97;;;21.80;27.90;;;;;;5051838;28;20193;-71
2022/01/12 06:08:43;;;;;;;7.05;4.45;;;21.80;27.90;;;;;;5051362;28;20511;-67
2022/01/12 06:11:10;;;;;;;8.05;4.85;;;21.80;27.90;;;;;;5052577;28;20123;-66
2022/01/12 06:13:38;;;;;;;7.90;5.72;;;21.70;27.90;;;;;;5051095;28;20068;-68
2022/01/12 06:16:05;;;;;;;8.70;5.70;;;21.70;27.80;;;;;;5051117;28;20098;-69
2022/01/12 06:18:32;;;;;;;7.18;5.10;;;21.70;27.70;;;;;;5049600;28;20045;-67
2022/01/12 06:20:59;;;;;;;9.95;5.13;;;21.70;27.70;;;;;;5052177;28;20478;-65
2022/01/12 06:23:27;;;;;;;8.20;5.68;;;21.70;27.80;;;;;;5050527;28;20068;-68
2022/01/12 06:25:54;;;;;;;9.30;5.88;;;21.70;27.90;;;;;;5049246;28;20091;-68
2022/01/12 06:28:37;;;;;;;9.25;6.10;;;21.70;27.90;;;;;;5047754;28;20489;-68
2022/01/12 06:31:10;;;;;;;8.52;5.60;;;21.70;27.80;;;;;;5051184;28;20049;-67
2022/01/12 06:33:41;;;;;;;10.63;6.18;;;21.80;27.70;;;;;;5050482;28;20575;-67
2022/01/12 06:36:09;;;;;;;8.43;6.38;;;21.80;27.70;;;;;;5050860;28;20049;-64
2022/01/12 06:38:36;;;;;;;8.98;5.30;;;21.90;27.70;;;;;;5048622;28;20085;-65
2022/01/12 06:41:04;;;;;;;8.15;5.72;;;21.90;27.60;;;;;;5050521;28;20053;-65
2022/01/12 06:43:32;;;;;;;7.78;5.88;;;22.00;27.60;;;;;;5048715;28;20077;-70
2022/01/12 06:45:59;;;;;;;7.65;6.55;;;22.00;27.60;;;;;;5047798;28;20509;-66
2022/01/12 06:48:27;;;;;;;10.48;6.53;;;22.10;27.60;;;;;;5042286;28;20056;-66
2022/01/12 06:50:54;;;;;;;12.45;6.68;;;22.20;28.10;;;;;;5050866;28;20367;-65
2022/01/12 06:53:21;;;;;;;10.80;6.90;;;22.30;28.00;;;;;;5049774;28;20056;-65
2022/01/12 06:55:48;;;;;;;9.05;6.60;;;22.30;27.80;;;;;;5050979;28;20049;-65
2022/01/12 06:58:15;;;;;;;10.57;7.93;;;22.40;27.60;;;;;;5050179;28;20524;-65
2022/01/12 07:00:43;;;;;;;8.75;6.72;;;22.40;27.50;;;;;;5037621;28;20107;-62
2022/01/12 07:03:10;;;;;;;12.00;7.15;;;22.50;27.50;;;;;;5045314;28;20100;-68
2022/01/12 07:05:38;;;;;;;12.82;7.88;;;22.60;27.40;;;;;;5045720;28;20060;-66
2022/01/12 07:08:05;;;;;;;9.77;7.60;;;22.60;27.30;;;;;;5042556;28;20056;-66
2022/01/12 07:10:33;;;;;;;11.02;8.27;;;22.70;27.40;;;;;;5043361;28;20044;-67
2022/01/12 07:13:00;;;;;;;12.05;8.32;;;22.80;27.20;;;;;;5041710;28;20122;-66
2022/01/12 07:15:27;;;;;;;12.05;8.73;;;22.90;27.20;;;;;;5050708;28;20060;-67
2022/01/12 07:17:55;;;;;;;12.88;9.10;;;22.90;27.10;;;;;;5046294;28;20049;-67
2022/01/12 07:20:22;;;;;;;11.10;8.93;;;23.00;27.10;;;;;;5046081;28;20044;-66
2022/01/12 07:26:46;;;;;;;12.13;9.20;;;23.10;27.20;;;;;;5047794;28;20138;-63
2022/01/12 07:29:13;;;;;;;11.98;8.98;;;23.20;27.10;;;;;;5048300;28;20131;-67
2022/01/12 07:31:41;;;;;;;12.25;9.48;;;23.30;27.10;;;;;;5043463;28;20051;-64
2022/01/12 07:34:08;;;;;;;11.82;8.93;;;23.30;27.10;;;;;;5062849;28;20501;-64
2022/01/12 07:36:35;;;;;;;13.70;9.30;;;23.40;27.20;;;;;;5066590;28;20049;-62
2022/01/12 07:39:02;;;;;;;14.90;9.48;;;23.50;27.00;;;;;;5066657;28;20125;-65
2022/01/12 07:41:29;;;;;;;12.23;9.07;;;23.60;27.10;;;;;;5061436;28;20444;-66
2022/01/12 07:43:57;;;;;;;11.82;8.88;;;23.60;27.00;;;;;;5046063;28;20064;-66
2022/01/12 07:46:25;;;;;;;10.63;8.63;;;23.70;26.90;;;;;;5047264;28;20393;-65
2022/01/12 07:48:52;;;;;;;11.18;8.65;;;23.80;26.90;;;;;;5051992;28;20047;-63
2022/01/12 07:51:19;;;;;;;12.63;8.73;;;23.80;26.90;;;;;;5068260;28;20053;-67
2022/01/12 07:53:47;;;;;;;13.27;9.40;;;23.90;26.90;;;;;;5065571;28;20047;-66
2022/01/12 07:56:14;;;;;;;13.02;8.57;;;23.90;26.90;;;;;;5089241;28;20373;-66
2022/01/12 07:58:41;;;;;;;14.25;9.50;;;24.00;26.90;;;;;;5071129;28;20044;-67
2022/01/12 08:01:08;;;;;;;14.43;8.77;;;24.10;26.90;;;;;;5086886;28;20071;-63
2022/01/12 08:03:36;;;;;;;11.00;8.40;;;24.10;26.90;;;;;;5080158;28;20205;-69
2022/01/12 08:06:03;;;;;;;9.45;7.80;;;24.20;27.00;;;;;;5088391;28;20408;-67
2022/01/12 08:08:30;;;;;;;12.00;8.32;;;24.20;27.00;;;;;;5087859;28;20204;-65
2022/01/12 08:10:57;;;;;;;12.80;8.93;;;24.30;27.00;;;;;;5087355;28;20485;-64
2022/01/12 08:13:24;;;;;;;11.38;8.90;;;24.30;26.90;;;;;;5075595;28;20048;-66
2022/01/12 08:15:53;;;;;;;12.35;8.15;;;24.40;27.00;;;;;;5067911;28;20044;-64
2022/01/12 08:18:20;;;;;;;11.70;8.60;;;24.40;26.90;;;;;;5068642;28;20106;-66
2022/01/12 08:20:47;;;;;;;11.55;8.60;;;24.40;26.80;;;;;;5084180;28;20544;-68
2022/01/12 08:23:14;;;;;;;10.48;7.95;;;24.50;26.80;;;;;;5069604;28;20571;-65
2022/01/12 08:25:42;;;;;;;10.57;8.13;;;24.50;26.80;;;;;;5061679;28;20395;-68
2022/01/12 08:28:09;;;;;;;9.57;7.90;;;24.60;26.90;;;;;;5064064;28;20044;-71
2022/01/12 08:30:37;;;;;;;9.25;7.57;;;24.60;27.00;;;;;;5041998;28;20509;-69
2022/01/12 08:33:05;;;;;;;13.07;8.55;;;24.70;26.90;;;;;;5061758;28;20052;-69
2022/01/12 08:35:33;;;;;;;9.23;7.38;;;24.70;26.80;;;;;;5055455;28;20094;-68
2022/01/12 08:38:01;;;;;;;11.93;8.18;;;24.80;26.80;;;;;;5040130;28;20048;-69
2022/01/12 08:40:29;;;;;;;13.50;8.05;;;24.80;26.70;;;;;;5061385;28;20060;-70
2022/01/12 08:43:05;;;;;;;11.77;8.15;;;24.80;26.70;;;;;;5060978;28;20048;-68
2022/01/12 08:45:33;;;;;;;9.63;7.82;;;24.90;26.60;;;;;;5058370;28;20055;-69
2022/01/12 08:48:00;;;;;;;9.68;7.57;;;24.90;26.70;;;;;;5060645;28;20072;-66
2022/01/12 08:50:27;;;;;;;9.07;7.50;;;24.90;26.70;;;;;;5066250;28;20059;-71
2022/01/12 08:52:55;;;;;;;12.65;7.97;;;25.00;26.70;;;;;;5067166;28;20433;-66
2022/01/12 08:55:23;;;;;;;9.18;7.43;;;25.00;26.60;;;;;;5067447;28;21885;-72
2022/01/12 08:57:51;;;;;;;9.57;7.78;;;25.00;26.60;;;;;;5062412;28;20445;-71
2022/01/12 09:00:19;;;;;;;9.68;7.25;;;25.00;26.60;;;;;;5047885;28;20083;-68
2022/01/12 09:02:46;;;;;;;15.43;8.23;;;25.10;26.60;;;;;;5067458;28;20561;-66
2022/01/12 09:05:15;;;;;;;10.60;7.80;;;25.10;26.90;;;;;;5067580;28;20071;-74
2022/01/12 09:07:42;;;;;;;9.13;6.65;;;25.10;26.90;;;;;;5060951;28;20049;-68
2022/01/12 09:10:11;;;;;;;9.98;7.40;;;25.10;26.80;;;;;;5067074;28;20118;-73
2022/01/12 09:12:39;;;;;;;9.65;7.03;;;25.20;26.70;;;;;;5049334;28;20074;-66
2022/01/12 09:15:08;;;;;;;10.43;7.82;;;25.20;27.40;;;;;;5063985;28;20052;-67
2022/01/12 09:17:35;;;;;;;8.85;6.78;;;25.20;27.20;;;;;;5063868;28;20520;-66
2022/01/12 09:20:04;;;;;;;11.98;7.30;;;25.30;27.40;;;;;;5067277;28;20076;-66
2022/01/12 09:22:32;;;;;;;8.15;6.97;;;25.30;27.30;;;;;;5066645;28;20053;-68
2022/01/12 09:24:59;;;;;;;12.13;7.93;;;25.40;27.20;;;;;;5067036;28;20190;-67
2022/01/12 09:27:26;;;;;;;8.68;6.65;;;25.40;27.40;;;;;;5066003;28;20507;-68
2022/01/12 09:29:53;;;;;;;11.80;7.63;;;25.40;27.10;;;;;;5068029;28;20041;-67
2022/01/12 09:32:20;;;;;;;8.60;6.60;;;25.50;27.10;;;;;;5067360;28;20453;-68
2022/01/12 09:34:47;;;;;;;9.48;6.93;;;25.50;27.00;;;;;;5067049;28;20095;-66
2022/01/12 09:37:15;;;;;;;7.90;6.63;;;25.50;26.80;;;;;;5065457;28;20052;-66
2022/01/12 09:39:42;;;;;;;8.75;7.22;;;25.60;26.90;;;;;;5055831;28;20087;-62
2022/01/12 09:42:10;;;;;;;8.68;6.28;;;25.60;26.80;;;;;;5057274;28;20067;-69
2022/01/12 09:44:43;;;;;;;7.68;6.20;;;25.60;26.90;;;;;;5066829;28;20132;-67
2022/01/12 09:47:10;;;;;;;10.95;6.97;;;25.70;27.10;;;;;;5045476;28;20079;-66
2022/01/12 09:49:40;;;;;;;12.73;7.28;;;25.70;27.40;;;;;;5066058;28;20052;-66
2022/01/12 09:52:08;;;;;;;8.23;6.80;;;25.70;27.40;;;;;;5053706;28;20953;-62
2022/01/12 09:54:36;;;;;;;9.38;7.22;;;25.70;27.30;;;;;;5066520;28;20733;-60
2022/01/12 09:57:05;;;;;;;8.63;6.32;;;25.80;27.10;;;;;;5059924;28;20045;-64
2022/01/12 09:59:33;;;;;;;8.48;6.53;;;25.80;27.10;;;;;;5067879;28;20041;-69
2022/01/12 10:02:00;;;;;;;8.45;7.32;;;25.80;27.60;;;;;;5061894;28;20192;-66
2022/01/12 10:04:30;;;;;;;10.40;6.72;;;25.90;27.30;;;;;;5069054;28;20180;-63
2022/01/12 10:07:03;;;;;;;8.15;6.43;;;25.90;27.10;;;;;;5051199;28;20045;-64
2022/01/12 10:09:34;;;;;;;9.70;7.10;;;25.90;27.00;;;;;;5070868;28;20120;-64
2022/01/12 10:12:08;;;;;;;11.52;6.88;;;25.90;26.70;;;;;;5069335;28;20076;-67
2022/01/12 10:14:48;;;;;;;8.32;6.70;;;26.00;27.00;;;;;;5050636;28;20284;-66
2022/01/12 10:17:16;;;;;;;11.05;6.75;;;26.00;27.00;;;;;;5049201;28;20049;-63
2022/01/12 10:19:44;;;;;;;8.77;6.20;;;26.00;26.80;;;;;;5049426;28;20049;-66
2022/01/12 10:22:17;;;;;;;9.05;6.10;;;26.00;27.00;;;;;;5051482;28;20052;-65
2022/01/12 10:24:45;;;;;;;8.02;6.22;;;26.00;27.10;;;;;;5042900;28;20052;-65
2022/01/12 10:27:16;;;;;;;9.43;6.25;;;26.00;27.00;;;;;;5061335;28;20461;-71
2022/01/12 10:30:01;;;;;;;10.95;5.65;;;26.00;27.00;;;;;;5054172;28;20052;-68
2022/01/12 10:32:28;;;;;;;9.00;6.72;;;26.10;27.00;;;;;;5042385;28;20152;-66
2022/01/12 10:34:57;;;;;;;8.07;5.70;;;26.10;26.90;;;;;;5063007;28;20080;-63
2022/01/12 10:37:26;;;;;;;9.25;6.13;;;26.10;26.80;;;;;;5061532;28;20084;-73
2022/01/12 10:39:56;;;;;;;9.25;7.13;;;26.20;26.70;;;;;;5084711;28;20055;-69
2022/01/12 10:42:26;;;;;;;10.38;6.70;;;26.20;26.70;;;;;;5063702;28;20060;-65
2022/01/12 10:44:57;;;;;;;11.50;6.57;;;26.20;26.70;;;;;;5068558;28;20106;-68
2022/01/12 10:47:29;;;;;;;9.10;6.72;;;26.20;26.90;;;;;;5061873;28;20695;-64
2022/01/12 10:56:55;;;;;;;9.27;7.05;;;26.20;26.70;;;;;;5063368;28;20075;-69
2022/01/12 10:59:22;;;;;;;14.90;7.20;;;26.20;26.60;;;;;;5068493;28;20072;-69
2022/01/12 11:01:50;;;;;;;8.18;6.35;;;26.20;26.50;;;;;;5068416;28;20052;-70
2022/01/12 11:04:18;;;;;;;9.05;6.85;;;26.10;26.40;;;;;;5070281;28;20044;-70
2022/01/12 11:06:45;;;;;;;9.13;6.20;;;26.10;26.50;;;;;;5068294;28;20516;-64
2022/01/12 11:09:14;;;;;;;10.55;5.97;;;26.00;26.40;;;;;;5067243;28;20045;-66
2022/01/12 11:11:41;;;;;;;7.90;6.75;;;26.00;26.30;;;;;;5069068;28;20414;-65
2022/01/12 11:14:11;;;;;;;14.02;10.20;;;25.90;26.20;;;;;;5070390;28;20083;-66
2022/01/12 11:16:38;;;;;;;19.15;13.40;;;25.70;23.20;;;;;;5070016;28;20052;-68
2022/01/12 11:19:07;;;;;;;12.73;9.30;;;24.80;22.00;;;;;;5045859;28;20049;-69
2022/01/12 11:21:41;;;;;;;12.73;8.38;;;24.50;24.20;;;;;;5065567;28;20120;-63
2022/01/12 11:24:17;;;;;;;14.63;8.70;;;24.50;24.80;;;;;;5066744;28;20053;-62
2022/01/12 11:26:52;;;;;;;12.75;8.50;;;24.50;25.00;;;;;;5062792;28;20502;-65
2022/01/12 11:29:28;;;;;;;10.65;7.57;;;24.60;25.30;;;;;;5072359;28;20158;-66
2022/01/12 11:32:13;;;;;;;16.52;8.52;;;24.60;25.20;;;;;;5058318;28;20044;-67
2022/01/12 11:34:41;;;;;;;8.73;6.50;;;24.70;25.30;;;;;;5050322;28;20047;-68
2022/01/12 11:40:41;;;;;;;14.50;6.90;;;24.70;25.60;;;;;;5060001;28;20094;-69
2022/01/12 11:43:20;;;;;;;13.57;7.72;;;24.80;25.80;;;;;;5063583;28;20102;-66
2022/01/12 11:46:01;;;;;;;10.75;7.40;;;24.80;25.80;;;;;;5061822;28;20044;-67
2022/01/12 11:56:51;;;;;;;9.75;6.80;;;24.80;25.30;;;;;;5069447;28;20070;-69
2022/01/12 11:59:19;;;;;;;9.63;7.15;;;24.80;25.30;;;;;;5067732;28;20044;-63
2022/01/12 12:01:50;;;;;;;10.57;7.45;;;24.70;25.20;;;;;;5067153;28;20110;-66
2022/01/12 12:04:30;;;;;;;11.05;7.18;;;24.70;25.20;;;;;;5065885;28;20075;-66
2022/01/12 12:07:14;;;;;;;9.30;6.80;;;24.70;25.20;;;;;;5068754;28;20071;-67
2022/01/12 12:09:52;;;;;;;9.48;6.60;;;24.70;25.20;;;;;;5067866;28;20485;-68
2022/01/12 12:12:23;;;;;;;8.52;6.13;;;24.70;25.20;;;;;;5066024;28;20114;-67
2022/01/12 12:14:53;;;;;;;9.77;6.47;;;24.70;25.30;;;;;;5068229;28;20493;-66
2022/01/12 12:17:23;;;;;;;9.00;6.65;;;24.70;25.30;;;;;;5066353;28;20053;-66
2022/01/12 12:19:51;;;;;;;13.00;6.82;;;24.70;25.30;;;;;;5064433;28;20064;-66
2022/01/12 12:22:26;;;;;;;9.80;6.57;;;24.70;25.30;;;;;;5062279;28;20060;-63
2022/01/12 12:25:01;;;;;;;7.68;5.85;;;24.70;25.30;;;;;;5067414;28;20493;-65
2022/01/12 12:27:30;;;;;;;9.55;6.88;;;24.70;25.30;;;;;;5067250;28;20449;-69
2022/01/12 12:29:58;;;;;;;8.02;6.40;;;24.70;25.50;;;;;;5066834;28;20040;-65
2022/01/12 12:32:43;;;;;;;10.93;7.13;;;24.70;25.60;;;;;;5064938;28;20175;-65
2022/01/12 12:35:21;;;;;;;11.20;6.78;;;24.70;25.80;;;;;;5068404;28;20091;-65
2022/01/12 12:37:56;;;;;;;9.13;6.57;;;24.70;26.50;;;;;;5067322;28;20048;-64
2022/01/12 12:40:48;;;;;;;8.80;6.53;;;24.70;26.20;;;;;;5065627;28;20049;-64
2022/01/12 12:43:20;;;;;;;9.15;6.13;;;24.70;26.30;;;;;;5068724;28;20122;-65
2022/01/12 12:45:57;;;;;;;9.65;6.65;;;24.80;26.50;;;;;;5067354;28;20098;-65
2022/01/12 12:48:30;;;;;;;7.93;6.15;;;24.80;26.40;;;;;;5049508;28;20144;-75
2022/01/12 12:51:14;;;;;;;8.43;6.03;;;24.80;26.60;;;;;;5065751;28;20521;-65
2022/01/12 12:53:44;;;;;;;8.50;6.35;;;24.80;26.70;;;;;;5065726;28;20075;-66
2022/01/12 12:56:14;;;;;;;;;;;24.80;26.60;;;;;;5068773;28;20529;-67
2022/01/12 12:58:47;;;;;;;16.38;6.50;;;24.80;26.50;;;;;;5066143;28;20282;-64
2022/01/12 13:01:16;;;;;;;9.55;6.22;;;24.70;26.50;;;;;;5067983;28;20044;-62
2022/01/12 13:03:50;;;;;;;9.68;6.22;;;24.80;26.60;;;;;;5060863;28;20075;-74
2022/01/12 13:06:27;;;;;;;8.25;6.38;;;24.70;26.60;;;;;;5061292;28;20673;-63
2022/01/12 13:12:37;;;;;;;9.93;6.35;;;24.70;26.60;;;;;;5068259;28;20208;-66
2022/01/12 13:15:07;;;;;;;;;;;24.70;26.70;;;;;;5067961;28;20087;-65
2022/01/12 13:17:37;;;;;;;8.50;6.30;;;24.70;26.70;;;;;;5062482;28;20030;-66
2022/01/12 13:23:02;;;;;;;9.02;6.55;;;24.70;26.70;;;;;;5053477;28;20405;-64
2022/01/12 13:25:30;;;;;;;8.38;6.30;;;24.70;26.70;;;;;;5068226;28;20490;-62
2022/01/12 13:27:58;;;;;;;8.80;6.57;;;24.80;26.60;;;;;;5071101;28;20099;-67
2022/01/12 13:30:31;;;;;;;9.55;6.55;;;24.80;26.60;;;;;;5073016;28;20409;-66
2022/01/12 13:32:59;;;;;;;8.02;6.10;;;24.80;26.60;;;;;;5085392;28;20082;-67
2022/01/12 13:35:36;;;;;;;9.00;6.35;;;24.80;26.50;;;;;;5081012;28;20098;-66
2022/01/12 13:38:05;;;;;;;9.07;5.55;;;24.80;26.50;;;;;;5065060;28;20048;-66
2022/01/12 13:40:42;;;;;;;7.70;5.68;;;24.80;26.50;;;;;;5071610;28;20048;-64
2022/01/12 13:43:10;;;;;;;7.55;5.72;;;24.80;26.50;;;;;;5070327;28;20122;-67
2022/01/12 13:45:45;;;;;;;9.73;6.15;;;24.70;26.40;;;;;;5071111;28;20045;-65
2022/01/12 13:48:16;;;;;;;8.23;5.97;;;24.80;26.60;;;;;;5070234;28;20048;-68
2022/01/12 13:50:47;;;;;;;7.82;5.63;;;24.80;27.00;;;;;;5065414;28;20489;-67
2022/01/12 13:56:54;;;;;;;8.68;5.68;;;24.80;26.40;;;;;;5060898;28;20060;-66
2022/01/12 13:59:25;;;;;;;8.75;5.57;;;24.80;26.30;;;;;;5067134;28;20106;-64
2022/01/12 14:01:52;;;;;;;8.43;5.97;;;24.80;26.40;;;;;;5068115;28;20483;-67
2022/01/12 14:04:32;;;;;;;7.00;5.60;;;24.80;26.50;;;;;;5070781;28;20258;-66
2022/01/12 14:07:03;;;;;;;9.23;5.93;;;24.70;26.40;;;;;;5079873;28;20032;-63
2022/01/12 14:09:35;;;;;;;10.18;5.93;;;24.80;26.50;;;;;;5063342;28;20074;-63
2022/01/12 14:12:11;;;;;;;8.27;6.07;;;24.70;26.50;;;;;;5086492;28;20079;-72
2022/01/12 14:14:49;;;;;;;11.52;5.88;;;24.70;26.50;;;;;;5092419;28;20080;-71
2022/01/12 14:17:34;;;;;;;7.70;5.97;;;24.70;26.50;;;;;;5083688;28;20117;-65
2022/01/12 14:20:22;;;;;;;11.32;6.03;;;24.70;26.60;;;;;;5085843;28;20047;-64
2022/01/12 14:22:52;;;;;;;11.52;6.60;;;24.70;26.90;;;;;;5084750;28;20048;-70
2022/01/12 14:29:11;;;;;;;10.23;6.30;;;24.70;27.30;;;;;;5088610;28;20043;-63
2022/01/12 14:31:39;;;;;;;10.73;5.88;;;24.70;27.60;;;;;;5093012;28;20043;-67
2022/01/12 14:34:07;;;;;;;9.77;5.68;;;24.70;27.50;;;;;;5090846;28;20048;-66
2022/01/12 14:36:34;;;;;;;9.68;5.47;;;24.70;27.50;;;;;;5090607;28;20048;-70
2022/01/12 14:39:01;;;;;;;10.90;6.15;;;24.70;27.50;;;;;;5088752;28;20079;-67
2022/01/12 14:41:28;;;;;;;12.00;6.38;;;24.70;27.40;;;;;;5085677;28;20039;-65
2022/01/12 14:43:55;;;;;;;8.07;5.63;;;24.60;27.20;;;;;;5090366;28;20048;-63
2022/01/12 14:46:23;;;;;;;8.82;6.15;;;24.60;27.20;;;;;;5090018;28;20468;-65
2022/01/12 14:52:17;;;;;;;9.43;6.00;;;24.60;27.10;;;;;;5083854;28;20463;-76
2022/01/12 14:54:44;;;;;;;8.43;5.65;;;24.60;27.10;;;;;;5090986;28;20234;-65
2022/01/12 14:57:11;;;;;;;6.88;5.50;;;24.50;27.00;;;;;;5089126;28;20464;-65
2022/01/12 14:59:39;;;;;;;8.35;5.95;;;24.60;27.10;;;;;;5070811;28;20048;-65
2022/01/12 15:02:06;;;;;;;7.13;5.65;;;24.60;27.10;;;;;;5083919;28;20068;-66
2022/01/12 15:04:34;;;;;;;9.25;5.90;;;24.60;27.20;;;;;;5071202;28;20114;-67
2022/01/12 15:07:01;;;;;;;10.88;5.68;;;24.50;27.00;;;;;;5070895;28;20048;-68
2022/01/12 15:09:28;;;;;;;7.80;5.25;;;24.50;26.90;;;;;;5089553;28;20105;-65
2022/01/12 15:11:55;;;;;;;8.20;5.55;;;24.50;26.90;;;;;;5068789;28;20048;-67
2022/01/12 15:14:30;;;;;;;7.47;5.65;;;24.50;26.90;;;;;;5089497;28;20048;-66
2022/01/12 15:16:58;;;;;;;6.97;5.78;;;24.50;27.00;;;;;;5089446;28;20463;-62